Time;durP1;ratioP1;P1;durP2;ratioP2;P2;SDS_P1;SDS_P2;PMS_P1;PMS_P2;Temp;Humidity;BMP_temperature;BMP_pressure;BME280_temperature;BME280_humidity;BME280_pressure;Samples;Min_cycle;Max_cycle;Signal;HPM_P1;HPM_P2
2022/06/07 04:06:26;;;;;;;2.33;2.13;;;19.20;99.90;;;;;;5741799;23;20902;-78
2022/06/07 04:08:52;;;;;;;2.88;2.30;;;19.20;99.90;;;;;;4990507;28;20085;-76
2022/06/07 04:11:27;;;;;;;3.55;2.33;;;19.10;99.90;;;;;;4983294;28;20029;-76
2022/06/07 04:13:54;;;;;;;2.70;2.50;;;19.10;99.90;;;;;;4988587;28;20030;-77
2022/06/07 04:16:25;;;;;;;3.08;2.30;;;19.10;99.90;;;;;;4977415;28;20783;-76
2022/06/07 04:18:53;;;;;;;5.72;2.95;;;19.10;99.90;;;;;;4975806;28;20025;-76
2022/06/07 04:21:20;;;;;;;5.13;3.20;;;19.10;99.90;;;;;;4968466;28;20025;-77
2022/06/07 04:23:48;;;;;;;4.38;2.70;;;19.20;99.90;;;;;;4977451;28;20030;-72
2022/06/07 04:26:22;;;;;;;4.30;3.28;;;19.40;99.90;;;;;;4967749;28;21503;-74
2022/06/07 04:28:48;;;;;;;4.40;3.33;;;19.70;99.90;;;;;;4973597;28;20053;-73
2022/06/07 04:31:19;;;;;;;6.53;4.68;;;19.90;99.90;;;;;;4968847;28;20031;-73
2022/06/07 04:33:46;;;;;;;4.80;4.30;;;20.00;99.90;;;;;;4988803;28;20736;-73
2022/06/07 04:36:19;;;;;;;5.63;4.40;;;20.10;99.90;;;;;;4968999;28;20602;-75
2022/06/07 04:38:46;;;;;;;5.00;4.20;;;20.30;99.90;;;;;;4987746;28;20023;-74
2022/06/07 04:41:14;;;;;;;4.45;4.05;;;20.30;99.90;;;;;;4971609;28;20033;-74
2022/06/07 04:43:42;;;;;;;6.85;4.13;;;20.40;99.90;;;;;;4992452;28;20385;-74
2022/06/07 04:46:14;;;;;;;4.50;3.70;;;20.50;99.90;;;;;;4986556;28;20025;-74
2022/06/07 04:48:41;;;;;;;5.18;3.88;;;20.50;99.90;;;;;;4973426;28;20058;-75
2022/06/07 04:51:09;;;;;;;5.03;3.63;;;20.60;99.90;;;;;;4989246;28;20098;-75
2022/06/07 04:53:35;;;;;;;4.75;3.88;;;20.60;99.90;;;;;;4978484;28;20049;-75
2022/06/07 04:56:14;;;;;;;7.13;5.43;;;20.70;99.90;;;;;;4993624;28;20042;-74
2022/06/07 04:58:47;;;;;;;7.75;5.28;;;20.70;99.90;;;;;;4994817;28;20033;-74
2022/06/07 05:01:32;;;;;;;6.00;4.32;;;20.70;99.90;;;;;;4969939;28;20468;-77
2022/06/07 05:04:01;;;;;;;7.03;4.97;;;20.70;99.90;;;;;;4986956;28;20428;-75
2022/06/07 05:06:35;;;;;;;5.65;4.63;;;20.70;99.90;;;;;;4969399;28;20113;-74
2022/06/07 05:09:05;;;;;;;6.32;5.05;;;20.70;99.90;;;;;;4972870;28;20025;-75
2022/06/07 05:11:31;;;;;;;5.10;4.30;;;20.80;99.90;;;;;;4989441;28;20062;-75
2022/06/07 05:13:59;;;;;;;6.35;4.35;;;20.90;99.90;;;;;;4995815;28;20087;-74
2022/06/07 05:16:25;;;;;;;5.60;4.65;;;21.00;99.90;;;;;;4973613;28;20026;-75
2022/06/07 05:18:54;;;;;;;6.10;3.88;;;21.10;99.90;;;;;;4990463;28;20057;-79
2022/06/07 05:21:25;;;;;;;4.03;3.63;;;21.20;99.90;;;;;;4978915;28;20369;-78
2022/06/07 05:24:04;;;;;;;5.22;3.33;;;21.40;99.90;;;;;;4973825;28;20025;-80
2022/06/07 05:26:51;;;;;;;4.13;3.10;;;21.60;99.90;;;;;;4999129;28;20029;-79
2022/06/07 05:29:24;;;;;;;5.57;3.13;;;21.70;99.90;;;;;;4970975;28;20514;-80
2022/06/07 05:31:54;;;;;;;3.50;2.88;;;21.90;99.90;;;;;;4979388;28;20050;-80
2022/06/07 05:34:20;;;;;;;2.92;2.63;;;22.10;99.90;;;;;;4976096;28;20018;-79
2022/06/07 05:36:50;;;;;;;5.60;2.38;;;22.40;99.90;;;;;;4983255;28;20559;-79
2022/06/07 05:39:22;;;;;;;3.85;2.63;;;22.70;99.90;;;;;;4974760;28;20551;-79
2022/06/07 05:41:54;;;;;;;2.90;2.55;;;23.10;99.90;;;;;;4995351;28;20030;-79
2022/06/07 05:44:24;;;;;;;2.90;2.30;;;23.60;99.90;;;;;;4983824;28;20034;-79
2022/06/07 05:46:56;;;;;;;2.75;2.50;;;24.10;99.90;;;;;;4979088;28;20372;-80
2022/06/07 05:49:30;;;;;;;2.40;1.90;;;25.50;99.90;;;;;;4984341;28;20021;-81
2022/06/07 05:51:56;;;;;;;4.28;3.38;;;27.40;97.30;;;;;;4983799;28;20077;-81
2022/06/07 05:54:21;;;;;;;4.05;3.63;;;28.50;94.90;;;;;;4963924;28;20038;-84
2022/06/07 05:56:51;;;;;;;5.50;3.95;;;29.80;92.40;;;;;;4991537;28;20620;-81
2022/06/07 05:59:18;;;;;;;5.30;3.45;;;30.30;90.50;;;;;;4970826;28;20439;-82
2022/06/07 06:01:44;;;;;;;3.92;3.60;;;31.50;88.30;;;;;;4996328;28;20783;-84
2022/06/07 06:04:19;;;;;;;5.32;3.22;;;33.00;81.10;;;;;;4970460;28;20053;-83
2022/06/07 06:06:46;;;;;;;4.55;3.85;;;34.10;77.70;;;;;;4976095;28;20485;-85
2022/06/07 06:12:04;;;;;;;5.07;3.40;;;33.00;73.90;;;;;;4985909;28;20029;-85
2022/06/07 06:14:31;;;;;;;4.53;4.10;;;31.80;76.00;;;;;;4980793;28;20473;-85
2022/06/07 06:16:59;;;;;;;6.43;3.92;;;29.90;78.20;;;;;;4970423;28;20498;-86
2022/06/07 06:19:35;;;;;;;8.38;4.57;;;28.80;82.50;;;;;;4972251;28;20548;-86
2022/06/07 06:22:07;;;;;;;5.00;4.03;;;27.90;84.50;;;;;;4979681;28;20369;-85
2022/06/07 06:24:34;;;;;;;4.95;3.97;;;27.60;86.90;;;;;;4968826;28;20045;-88
2022/06/07 06:27:00;;;;;;;6.10;3.88;;;28.20;85.80;;;;;;4979019;28;20022;-88
2022/06/07 06:29:27;;;;;;;3.30;2.70;;;29.80;82.80;;;;;;4985963;28;20034;-83
2022/06/07 06:31:53;;;;;;;3.58;3.05;;;32.40;78.20;;;;;;4989646;28;20018;-84
2022/06/07 06:34:29;;;;;;;4.30;3.40;;;33.70;74.50;;;;;;4966825;28;20052;-83
2022/06/07 06:36:57;;;;;;;4.80;3.33;;;35.90;69.10;;;;;;4971907;28;20022;-84
2022/06/07 06:39:27;;;;;;;7.72;4.32;;;34.80;67.40;;;;;;4965415;28;20021;-86
2022/06/07 06:42:03;;;;;;;6.13;3.30;;;35.50;66.40;;;;;;4991364;28;20067;-86
2022/06/07 06:44:31;;;;;;;4.45;3.33;;;36.80;64.90;;;;;;4972246;28;20028;-85
2022/06/07 06:47:00;;;;;;;5.03;3.22;;;37.40;62.60;;;;;;4974035;28;20120;-83
2022/06/07 06:49:29;;;;;;;3.58;3.28;;;37.10;61.00;;;;;;4980743;28;20022;-83
2022/06/07 06:51:56;;;;;;;5.38;3.45;;;36.40;61.50;;;;;;4979419;28;20091;-81
2022/06/07 06:54:24;;;;;;;4.13;3.45;;;34.80;63.20;;;;;;4968379;28;20029;-83
2022/06/07 06:56:51;;;;;;;4.13;3.50;;;32.80;66.10;;;;;;4996756;28;20042;-83
2022/06/07 06:59:18;;;;;;;8.45;3.58;;;31.50;69.70;;;;;;4985398;28;20030;-84
2022/06/07 07:01:55;;;;;;;4.03;3.63;;;31.50;70.50;;;;;;4962960;28;20121;-83
2022/06/07 07:04:21;;;;;;;6.40;3.40;;;31.50;69.60;;;;;;4980548;28;20026;-82
2022/06/07 07:06:47;;;;;;;3.72;3.40;;;31.60;70.30;;;;;;4969750;28;20041;-84
2022/06/07 07:09:17;;;;;;;4.20;3.42;;;31.00;71.00;;;;;;4979867;28;20034;-82
2022/06/07 07:11:48;;;;;;;6.22;4.05;;;31.10;71.70;;;;;;4967764;28;20023;-82
2022/06/07 07:14:17;;;;;;;3.85;3.00;;;31.90;70.60;;;;;;4985983;28;20117;-74
2022/06/07 07:16:47;;;;;;;3.95;2.88;;;32.50;70.00;;;;;;4984657;28;20109;-74
2022/06/07 07:19:15;;;;;;;3.33;3.03;;;32.60;69.70;;;;;;4984910;28;20027;-73
2022/06/07 07:21:43;;;;;;;2.30;2.10;;;32.30;69.20;;;;;;4975051;28;20026;-74
2022/06/07 07:24:16;;;;;;;1.83;1.73;;;31.80;67.40;;;;;;4976300;28;20359;-73
2022/06/07 07:26:45;;;;;;;2.80;1.90;;;31.40;66.30;;;;;;4973017;28;20906;-74
2022/06/07 07:29:14;;;;;;;2.67;1.85;;;30.80;65.80;;;;;;4972056;28;20089;-73
2022/06/07 07:31:41;;;;;;;2.17;1.80;;;30.50;66.70;;;;;;4975367;28;21956;-73
2022/06/07 07:34:11;;;;;;;1.58;1.48;;;30.90;67.30;;;;;;4985191;28;20478;-73
2022/06/07 07:36:43;;;;;;;3.08;1.80;;;32.00;65.70;;;;;;4989410;28;20030;-74
2022/06/07 07:39:10;;;;;;;2.05;1.92;;;32.10;64.70;;;;;;4987992;28;20018;-74
2022/06/07 07:41:37;;;;;;;1.85;1.75;;;31.90;65.20;;;;;;4982669;28;20034;-74
2022/06/07 07:44:07;;;;;;;1.80;1.70;;;31.70;64.50;;;;;;4973579;28;20467;-73
2022/06/07 07:46:35;;;;;;;3.25;1.70;;;31.00;65.20;;;;;;4983097;28;20115;-73
2022/06/07 07:49:03;;;;;;;1.88;1.77;;;30.50;65.90;;;;;;4991711;28;20056;-74
2022/06/07 07:51:35;;;;;;;2.08;1.80;;;30.00;66.60;;;;;;4962148;28;20052;-73
2022/06/07 07:54:03;;;;;;;2.60;1.60;;;29.60;67.50;;;;;;4991579;28;20053;-73
2022/06/07 07:56:29;;;;;;;5.35;2.00;;;29.40;68.40;;;;;;4986489;28;20026;-74
2022/06/07 07:58:57;;;;;;;2.17;1.83;;;29.10;70.20;;;;;;4993192;28;20452;-73
2022/06/07 08:01:33;;;;;;;1.88;1.77;;;28.70;71.20;;;;;;4989102;28;20627;-73
2022/06/07 08:04:00;;;;;;;2.75;1.80;;;28.40;73.00;;;;;;4988243;28;20537;-73
2022/06/07 08:06:28;;;;;;;2.30;2.10;;;28.10;71.90;;;;;;4986059;28;20081;-73
2022/06/07 08:08:59;;;;;;;2.33;1.98;;;27.80;72.70;;;;;;4990274;28;20029;-72
2022/06/07 08:11:30;;;;;;;4.22;1.80;;;27.60;74.00;;;;;;4982645;28;20014;-73
2022/06/07 08:13:57;;;;;;;2.45;2.00;;;27.50;74.10;;;;;;4987951;28;20375;-72
2022/06/07 08:16:23;;;;;;;2.15;2.00;;;27.40;74.80;;;;;;4984719;28;20022;-72
2022/06/07 08:18:50;;;;;;;2.17;1.90;;;27.50;75.00;;;;;;4993743;28;20018;-72
2022/06/07 08:21:22;;;;;;;2.42;2.20;;;27.40;75.70;;;;;;4990737;28;20164;-73
2022/06/07 08:23:49;;;;;;;2.03;1.83;;;27.30;76.20;;;;;;4996532;28;20025;-73
2022/06/07 08:26:17;;;;;;;2.03;1.90;;;27.40;76.20;;;;;;4989592;28;20037;-73
2022/06/07 08:28:44;;;;;;;2.00;1.80;;;27.30;75.90;;;;;;4994199;28;20022;-73
2022/06/07 08:31:24;;;;;;;3.13;1.67;;;27.60;75.10;;;;;;4993551;28;20048;-73
2022/06/07 08:39:25;;;;;;;2.13;1.60;;;27.80;73.10;;;;;;4986175;28;20823;-72
2022/06/07 08:42:08;;;;;;;3.75;1.70;;;27.50;72.40;;;;;;4974522;28;20026;-75
2022/06/07 08:44:45;;;;;;;2.28;1.70;;;27.20;73.80;;;;;;4989000;28;20112;-75
2022/06/07 08:47:23;;;;;;;2.20;1.98;;;27.10;74.40;;;;;;4993195;28;20075;-72
2022/06/07 08:49:51;;;;;;;2.58;1.70;;;27.10;74.60;;;;;;4990494;28;20022;-75
2022/06/07 08:52:26;;;;;;;1.67;1.40;;;27.00;75.00;;;;;;4993611;28;20026;-72
2022/06/07 08:54:52;;;;;;;3.47;1.70;;;26.90;75.60;;;;;;4980131;28;20018;-75
2022/06/07 08:57:30;;;;;;;1.77;1.60;;;26.90;75.40;;;;;;4989021;28;20026;-75
2022/06/07 09:00:07;;;;;;;1.60;1.50;;;26.90;76.00;;;;;;4986426;28;20025;-75
2022/06/07 09:03:01;;;;;;;2.15;1.50;;;26.70;76.50;;;;;;4965582;28;20248;-74
2022/06/07 09:05:27;;;;;;;2.97;1.63;;;26.60;76.20;;;;;;4983679;28;20434;-74
2022/06/07 09:07:54;;;;;;;;;;;26.60;76.50;;;;;;4996095;28;20038;-75
2022/06/07 09:13:19;;;;;;;2.45;1.80;;;26.50;77.10;;;;;;4989388;28;20045;-75
2022/06/07 09:15:48;;;;;;;1.85;1.75;;;26.90;77.10;;;;;;4972130;28;20068;-73
2022/06/07 09:18:16;;;;;;;1.83;1.73;;;27.60;76.60;;;;;;4975896;28;20027;-72
2022/06/07 09:20:46;;;;;;;2.55;1.98;;;28.30;75.30;;;;;;4968311;28;20045;-72
2022/06/07 09:23:15;;;;;;;2.28;1.83;;;28.70;73.60;;;;;;4974829;28;20160;-73
2022/06/07 09:25:48;;;;;;;1.85;1.60;;;29.00;73.20;;;;;;4985200;28;20026;-72
2022/06/07 09:28:32;;;;;;;1.83;1.58;;;29.30;72.00;;;;;;4994348;28;21481;-73
2022/06/07 09:31:08;;;;;;;2.88;2.03;;;29.30;71.90;;;;;;4970552;28;20046;-73
2022/06/07 09:33:37;;;;;;;3.42;1.80;;;29.80;71.90;;;;;;4985005;28;20080;-75
2022/06/07 09:36:09;;;;;;;2.03;1.42;;;30.60;70.60;;;;;;4978413;28;20109;-75
2022/06/07 09:38:41;;;;;;;1.73;1.50;;;31.50;68.60;;;;;;4991254;28;20032;-76
2022/06/07 09:41:38;;;;;;;1.92;1.60;;;32.20;66.70;;;;;;4975135;28;20013;-76
2022/06/07 09:44:35;;;;;;;3.78;1.92;;;32.50;65.80;;;;;;4986205;28;20022;-76
2022/06/07 09:47:16;;;;;;;1.70;1.58;;;32.80;65.40;;;;;;4981285;28;20030;-76
2022/06/07 09:49:55;;;;;;;1.73;1.63;;;33.40;65.60;;;;;;4982964;28;20058;-76
2022/06/07 09:52:27;;;;;;;2.97;1.83;;;34.60;63.40;;;;;;4972114;28;20037;-74
2022/06/07 09:55:01;;;;;;;3.78;2.22;;;34.90;62.20;;;;;;4972619;28;20049;-73
2022/06/07 09:57:42;;;;;;;3.60;1.80;;;34.40;62.30;;;;;;4985025;28;20017;-73
2022/06/07 10:00:31;;;;;;;3.25;1.88;;;34.40;63.00;;;;;;4976607;28;20022;-75
2022/06/07 10:03:11;;;;;;;1.75;1.65;;;35.00;62.60;;;;;;4969109;28;20383;-75
2022/06/07 10:06:06;;;;;;;2.40;2.10;;;35.40;61.10;;;;;;4969981;28;20198;-75
2022/06/07 10:08:53;;;;;;;3.22;2.10;;;35.90;60.20;;;;;;4952829;28;20266;-75
2022/06/07 10:11:39;;;;;;;5.53;2.38;;;36.10;60.30;;;;;;4992954;28;20029;-74
2022/06/07 10:14:17;;;;;;;;;;;35.90;59.60;;;;;;4983108;28;20131;-74
2022/06/07 10:16:55;;;;;;;2.63;2.42;;;34.90;61.00;;;;;;4982807;28;20349;-74
2022/06/07 10:19:41;;;;;;;4.70;2.75;;;33.50;62.50;;;;;;4985173;28;20040;-74
2022/06/07 10:22:29;;;;;;;3.63;2.70;;;32.60;64.50;;;;;;4986534;28;20018;-74
2022/06/07 10:25:14;;;;;;;4.40;3.28;;;31.30;66.90;;;;;;4988966;28;20050;-73
2022/06/07 10:28:07;;;;;;;5.37;2.67;;;31.20;67.10;;;;;;4965570;28;20025;-74
2022/06/07 10:30:56;;;;;;;4.28;2.58;;;31.40;66.70;;;;;;4980641;28;20038;-74
2022/06/07 10:33:38;;;;;;;3.17;2.97;;;31.10;67.00;;;;;;4981080;28;20121;-74
2022/06/07 10:36:39;;;;;;;2.72;2.53;;;30.60;67.40;;;;;;4987489;28;20026;-73
2022/06/07 10:39:20;;;;;;;3.63;2.72;;;30.40;68.80;;;;;;4973948;28;20205;-76
2022/06/07 10:42:00;;;;;;;4.55;2.75;;;30.90;68.10;;;;;;4970469;28;21423;-77
2022/06/07 10:45:10;;;;;;;3.25;2.28;;;31.50;65.60;;;;;;4982241;28;20045;-76
2022/06/07 10:47:48;;;;;;;3.13;2.83;;;32.20;63.90;;;;;;4982012;28;20020;-73
2022/06/07 10:50:23;;;;;;;4.25;2.35;;;33.10;62.90;;;;;;4988014;28;20055;-74
2022/06/07 10:53:00;;;;;;;2.50;2.30;;;33.00;63.30;;;;;;4992471;28;20106;-74
2022/06/07 10:55:42;;;;;;;2.95;2.63;;;32.50;63.90;;;;;;4980377;28;20022;-73
2022/06/07 10:58:41;;;;;;;4.28;3.67;;;31.80;64.20;;;;;;4990669;28;20033;-74
2022/06/07 11:01:22;;;;;;;2.45;2.25;;;31.20;65.60;;;;;;4993105;28;20073;-72
2022/06/07 11:10:14;;;;;;;3.92;2.60;;;30.90;65.90;;;;;;4987106;28;20115;-76
2022/06/07 11:12:50;;;;;;;3.55;2.58;;;30.50;66.30;;;;;;4969518;28;20033;-76
2022/06/07 11:15:34;;;;;;;2.70;2.50;;;29.90;66.80;;;;;;4969004;28;20025;-76
2022/06/07 11:18:07;;;;;;;2.67;2.45;;;29.30;68.20;;;;;;4989716;28;20022;-76
2022/06/07 11:20:36;;;;;;;2.20;2.08;;;28.70;67.80;;;;;;4960904;28;20157;-78
2022/06/07 11:23:19;;;;;;;3.13;2.25;;;28.20;69.20;;;;;;4971295;28;20037;-76
2022/06/07 11:26:14;;;;;;;2.58;2.10;;;28.10;70.00;;;;;;4965883;28;20881;-78
2022/06/07 11:28:40;;;;;;;2.45;2.22;;;27.90;71.10;;;;;;4984257;28;20024;-76
2022/06/07 11:31:24;;;;;;;5.00;2.28;;;27.70;72.90;;;;;;4987014;28;20017;-75
2022/06/07 11:33:53;;;;;;;3.05;2.40;;;27.50;73.20;;;;;;4981895;28;20041;-76
2022/06/07 11:36:34;;;;;;;4.38;2.75;;;27.30;74.00;;;;;;4971730;28;20037;-76
2022/06/07 11:39:17;;;;;;;3.13;2.83;;;27.20;74.90;;;;;;4972719;28;20169;-78
2022/06/07 11:42:07;;;;;;;2.65;2.45;;;26.90;76.10;;;;;;4970599;28;20031;-76
2022/06/07 11:44:36;;;;;;;3.95;2.50;;;26.60;76.90;;;;;;4953730;28;20065;-76
2022/06/07 11:47:11;;;;;;;3.55;3.05;;;26.40;78.20;;;;;;4967105;28;20473;-75
2022/06/07 11:49:41;;;;;;;6.85;3.28;;;26.30;79.80;;;;;;4966702;28;20027;-74
2022/06/07 11:52:13;;;;;;;5.53;2.60;;;26.00;81.00;;;;;;4991725;28;20077;-72
2022/06/07 11:54:54;;;;;;;2.35;2.15;;;25.80;82.10;;;;;;4985677;28;20022;-71
2022/06/07 11:57:31;;;;;;;3.10;2.80;;;25.60;83.40;;;;;;4975530;28;20072;-71
2022/06/07 12:00:18;;;;;;;6.25;2.70;;;25.30;84.30;;;;;;4983792;28;20022;-75
2022/06/07 12:03:08;;;;;;;3.58;2.50;;;25.10;85.80;;;;;;4966627;28;20200;-75
2022/06/07 12:05:52;;;;;;;3.45;2.40;;;24.80;87.00;;;;;;4965812;28;20021;-75
2022/06/07 12:08:28;;;;;;;2.33;2.15;;;24.50;88.40;;;;;;4973900;28;20088;-75
2022/06/07 12:11:05;;;;;;;2.70;2.33;;;24.40;89.10;;;;;;4967446;28;20113;-76
2022/06/07 12:13:49;;;;;;;4.03;2.50;;;24.20;90.00;;;;;;4983742;28;20060;-73
2022/06/07 12:16:34;;;;;;;2.97;2.50;;;24.00;90.30;;;;;;4982814;28;20026;-72
2022/06/07 12:19:06;;;;;;;4.68;2.53;;;23.80;90.70;;;;;;4988525;28;20474;-76
2022/06/07 12:21:40;;;;;;;8.82;6.70;;;23.60;91.30;;;;;;4966646;28;20105;-73
2022/06/07 12:24:17;;;;;;;9.80;6.72;;;23.60;91.80;;;;;;4974325;28;20022;-74
2022/06/07 12:26:46;;;;;;;5.45;3.17;;;23.40;92.50;;;;;;4984941;28;20035;-73
2022/06/07 12:29:26;;;;;;;3.95;2.65;;;23.30;93.50;;;;;;4972558;28;20388;-74
2022/06/07 12:32:00;;;;;;;3.22;2.83;;;23.10;94.40;;;;;;4984252;28;20080;-75
2022/06/07 12:34:32;;;;;;;3.97;3.05;;;23.10;97.00;;;;;;4972511;28;20030;-74
2022/06/07 12:37:03;;;;;;;5.78;3.42;;;23.00;98.70;;;;;;4972498;28;20028;-75
2022/06/07 12:39:39;;;;;;;9.88;3.05;;;22.90;99.90;;;;;;4973739;28;20419;-74
2022/06/07 12:42:14;;;;;;;3.90;3.47;;;22.80;99.90;;;;;;4989070;28;20025;-73
2022/06/07 12:44:42;;;;;;;5.03;3.70;;;22.70;99.90;;;;;;4967252;28;20029;-74
2022/06/07 12:47:34;;;;;;;3.47;3.17;;;22.60;99.90;;;;;;4965850;28;20029;-74
2022/06/07 12:50:03;;;;;;;4.45;3.47;;;22.50;99.90;;;;;;4975708;28;20378;-74
2022/06/07 12:52:32;;;;;;;4.38;3.97;;;22.40;99.90;;;;;;4991984;28;20026;-74
2022/06/07 12:55:10;;;;;;;4.28;3.80;;;22.40;99.90;;;;;;4972617;28;20045;-75
2022/06/07 12:57:53;;;;;;;4.10;3.70;;;22.20;99.90;;;;;;4984838;28;20104;-75
2022/06/07 13:00:27;;;;;;;5.00;4.07;;;22.10;99.90;;;;;;4976721;28;20029;-76
2022/06/07 13:03:04;;;;;;;5.22;4.00;;;22.00;99.90;;;;;;4964013;28;20022;-74
2022/06/07 13:05:36;;;;;;;4.53;3.80;;;22.00;99.90;;;;;;4990201;28;20076;-75
2022/06/07 13:08:13;;;;;;;6.25;4.50;;;22.00;99.90;;;;;;4976203;28;20058;-74
2022/06/07 13:10:39;;;;;;;5.50;4.55;;;22.00;99.90;;;;;;4974210;28;20080;-75
2022/06/07 13:13:07;;;;;;;6.68;5.25;;;22.00;99.90;;;;;;4991155;28;20040;-74
2022/06/07 13:15:50;;;;;;;5.68;4.70;;;22.10;99.90;;;;;;4977032;28;20027;-79
2022/06/07 13:18:33;;;;;;;5.30;4.25;;;22.10;99.90;;;;;;4976972;28;20030;-79
2022/06/07 13:21:36;;;;;;;4.30;3.78;;;22.00;99.90;;;;;;4990892;28;20025;-79
2022/06/07 13:24:05;;;;;;;5.07;3.90;;;21.80;99.90;;;;;;4929973;29;20024;-79
2022/06/07 13:26:43;;;;;;;4.45;4.03;;;21.70;99.90;;;;;;4967559;28;20029;-79
2022/06/07 13:29:17;;;;;;;4.68;4.00;;;21.60;99.90;;;;;;4975446;28;20064;-80
2022/06/07 13:31:51;;;;;;;4.30;3.80;;;21.60;99.90;;;;;;4995610;28;20049;-80
2022/06/07 13:34:27;;;;;;;6.07;4.38;;;21.40;99.90;;;;;;4991991;28;20076;-79
2022/06/07 13:37:34;;;;;;;4.35;3.95;;;21.30;99.90;;;;;;4964508;28;20115;-78
2022/06/07 13:40:25;;;;;;;5.75;4.35;;;21.10;99.90;;;;;;4965583;28;20023;-79
2022/06/07 13:43:24;;;;;;;5.20;4.70;;;21.00;99.90;;;;;;4965513;28;20113;-79
2022/06/07 13:46:06;;;;;;;8.57;4.50;;;20.90;99.90;;;;;;4965614;28;20110;-79
2022/06/07 13:54:25;;;;;;;6.55;4.80;;;20.80;99.90;;;;;;4989811;28;20407;-80
2022/06/07 13:56:52;;;;;;;5.38;4.53;;;20.70;99.90;;;;;;4968973;28;20135;-80
2022/06/07 13:59:18;;;;;;;5.57;4.43;;;20.70;99.90;;;;;;4972765;28;20082;-80
2022/06/07 14:01:50;;;;;;;6.18;4.75;;;20.70;99.90;;;;;;4985474;28;20022;-79
2022/06/07 14:04:22;;;;;;;4.72;4.22;;;20.70;99.90;;;;;;4973169;28;20034;-79
2022/06/07 14:06:48;;;;;;;5.13;4.38;;;20.80;99.90;;;;;;4992023;28;20502;-79
2022/06/07 14:09:22;;;;;;;;;;;20.80;99.90;;;;;;4981464;28;20027;-79
2022/06/07 14:11:53;;;;;;;4.30;3.65;;;20.80;99.90;;;;;;4969775;28;20026;-79
2022/06/07 14:14:26;;;;;;;5.57;3.78;;;20.80;99.90;;;;;;4986397;28;20014;-79
2022/06/07 14:17:17;;;;;;;6.72;4.43;;;20.80;99.90;;;;;;4965220;28;20029;-79
2022/06/07 14:19:54;;;;;;;4.70;4.30;;;20.80;99.90;;;;;;4968692;28;20030;-79
2022/06/07 14:22:33;;;;;;;6.93;4.18;;;20.80;99.90;;;;;;4988949;28;20089;-79
2022/06/07 14:25:04;;;;;;;4.60;4.07;;;20.80;99.90;;;;;;4968745;28;20102;-79
2022/06/07 14:27:32;;;;;;;5.70;4.32;;;20.70;99.90;;;;;;4968191;28;20624;-79
2022/06/07 14:29:58;;;;;;;6.28;5.18;;;20.60;99.90;;;;;;4982978;28;20460;-79
2022/06/07 14:32:30;;;;;;;5.13;4.63;;;20.60;99.90;;;;;;4985975;28;20097;-80
2022/06/07 14:35:01;;;;;;;5.07;4.57;;;20.50;99.90;;;;;;4973309;28;20312;-79
2022/06/07 14:37:28;;;;;;;5.07;4.55;;;20.50;99.90;;;;;;4980425;28;20097;-79
2022/06/07 14:39:54;;;;;;;5.15;4.53;;;20.60;99.90;;;;;;4984196;28;20577;-79
2022/06/07 14:42:24;;;;;;;6.63;5.28;;;20.60;99.90;;;;;;4981216;28;20022;-79
2022/06/07 14:44:52;;;;;;;5.15;4.63;;;20.60;99.90;;;;;;4994961;28;20021;-81
2022/06/07 14:47:25;;;;;;;6.70;4.47;;;20.70;99.90;;;;;;4990301;28;20018;-80
2022/06/07 14:49:55;;;;;;;5.75;5.15;;;20.70;99.90;;;;;;4977145;28;20022;-80
2022/06/07 14:52:23;;;;;;;5.68;4.18;;;20.70;99.90;;;;;;5002159;28;20105;-80
2022/06/07 14:54:54;;;;;;;4.30;3.90;;;20.70;99.90;;;;;;5005714;28;20021;-81
2022/06/07 14:57:51;;;;;;;4.72;3.15;;;20.60;99.90;;;;;;4997609;28;20022;-81
2022/06/07 15:00:21;;;;;;;4.10;3.27;;;20.40;99.90;;;;;;5004741;28;20092;-79
2022/06/07 15:02:53;;;;;;;5.63;4.20;;;20.30;99.90;;;;;;4995309;28;20393;-80
2022/06/07 15:05:30;;;;;;;4.63;4.22;;;20.20;99.90;;;;;;4995283;28;20024;-80
2022/06/07 15:08:15;;;;;;;6.80;4.15;;;20.20;99.90;;;;;;4965223;28;20030;-79
2022/06/07 15:10:42;;;;;;;6.53;4.05;;;20.20;99.90;;;;;;4977474;28;20902;-80
2022/06/07 15:13:31;;;;;;;4.75;4.28;;;20.20;99.90;;;;;;4979603;28;20034;-80
2022/06/07 15:16:04;;;;;;;4.57;4.18;;;20.20;99.90;;;;;;4972481;28;20325;-79
2022/06/07 15:18:35;;;;;;;4.85;3.88;;;20.20;99.90;;;;;;4985208;28;20050;-79
2022/06/07 15:21:16;;;;;;;4.05;3.65;;;20.20;99.90;;;;;;4969149;28;20038;-80
2022/06/07 15:23:45;;;;;;;4.68;3.60;;;20.10;99.90;;;;;;4990504;28;20093;-82
2022/06/07 15:26:15;;;;;;;4.25;3.15;;;20.00;99.90;;;;;;5007709;28;20026;-80
2022/06/07 15:28:44;;;;;;;3.58;3.25;;;19.90;99.90;;;;;;4988586;28;20782;-80
2022/06/07 15:31:30;;;;;;;6.88;3.80;;;19.90;99.90;;;;;;5002974;28;20101;-80
2022/06/07 15:34:08;;;;;;;3.65;3.35;;;19.80;99.90;;;;;;4993631;28;20021;-80
2022/06/07 15:36:37;;;;;;;4.30;3.58;;;19.70;99.90;;;;;;5003045;28;20030;-80
2022/06/07 15:39:13;;;;;;;4.93;4.10;;;19.60;99.90;;;;;;4989714;28;20014;-80
2022/06/07 15:44:38;;;;;;;3.90;3.58;;;19.60;99.90;;;;;;4993164;28;20498;-80
2022/06/07 15:47:04;;;;;;;3.72;3.40;;;19.50;99.90;;;;;;4978766;28;20026;-79
2022/06/07 15:49:38;;;;;;;3.63;3.22;;;19.50;99.90;;;;;;4979718;28;20105;-79
2022/06/07 15:52:08;;;;;;;5.40;3.67;;;19.40;99.90;;;;;;4985564;28;20027;-80
2022/06/07 15:54:35;;;;;;;3.83;3.35;;;19.40;99.90;;;;;;4982139;28;20022;-79
2022/06/07 15:57:00;;;;;;;3.47;3.10;;;19.30;99.90;;;;;;4974834;28;20777;-79
2022/06/07 15:59:27;;;;;;;6.35;4.13;;;19.20;99.90;;;;;;4981968;28;20184;-79
2022/06/07 16:01:55;;;;;;;3.67;3.38;;;19.10;99.90;;;;;;4970213;28;20491;-79
2022/06/07 16:04:26;;;;;;;5.43;3.63;;;19.10;99.90;;;;;;4973240;28;20021;-78
2022/06/07 16:06:52;;;;;;;4.55;3.53;;;19.00;99.90;;;;;;4990256;28;20503;-79
2022/06/07 16:09:21;;;;;;;2.65;2.45;;;19.00;99.90;;;;;;4977445;28;20060;-79
2022/06/07 16:11:47;;;;;;;4.43;2.70;;;19.00;99.90;;;;;;4969162;28;20105;-79
2022/06/07 16:14:13;;;;;;;2.97;2.78;;;19.00;99.90;;;;;;4978021;28;20097;-79
2022/06/07 16:16:45;;;;;;;3.80;2.63;;;18.90;99.90;;;;;;4986850;28;20391;-79
2022/06/07 16:19:13;;;;;;;2.67;2.47;;;18.90;99.90;;;;;;4982949;28;20109;-78
2022/06/07 16:21:41;;;;;;;5.15;2.60;;;18.90;99.90;;;;;;4970949;28;20029;-77
2022/06/07 16:24:10;;;;;;;3.85;2.55;;;18.80;99.90;;;;;;4978266;28;20018;-77
2022/06/07 16:26:42;;;;;;;4.35;2.75;;;18.90;99.90;;;;;;4990356;28;20022;-77
2022/06/07 16:34:48;;;;;;;2.83;2.53;;;19.00;99.90;;;;;;4984602;28;20507;-78
2022/06/07 16:37:17;;;;;;;3.35;2.13;;;19.00;99.90;;;;;;4990505;28;20971;-78
2022/06/07 16:39:45;;;;;;;2.20;2.00;;;19.00;99.90;;;;;;4970660;28;20495;-78
2022/06/07 16:42:10;;;;;;;2.10;1.95;;;19.00;99.90;;;;;;4974790;28;20169;-78
2022/06/07 16:44:37;;;;;;;2.83;2.22;;;19.00;99.90;;;;;;4967516;28;20093;-78
2022/06/07 16:47:04;;;;;;;7.32;1.88;;;19.00;99.90;;;;;;4975860;28;20030;-79
2022/06/07 16:49:33;;;;;;;4.60;2.08;;;19.00;99.90;;;;;;4992061;28;20056;-76
2022/06/07 16:52:07;;;;;;;2.08;1.90;;;19.00;99.90;;;;;;4989837;28;20014;-76
2022/06/07 16:54:33;;;;;;;5.10;1.80;;;18.90;99.90;;;;;;4995372;28;20105;-77
2022/06/07 16:57:19;;;;;;;2.63;1.30;;;18.80;99.90;;;;;;4987556;28;20093;-77
2022/06/07 16:59:52;;;;;;;4.22;1.60;;;18.80;99.90;;;;;;4991108;28;20026;-77
2022/06/07 17:02:20;;;;;;;2.42;1.50;;;18.80;99.90;;;;;;4976145;28;20029;-76
2022/06/07 17:04:47;;;;;;;4.10;1.45;;;18.80;99.90;;;;;;4996211;28;20092;-76
2022/06/07 17:07:15;;;;;;;2.25;1.50;;;18.70;99.90;;;;;;4974838;28;20027;-76
2022/06/07 17:09:42;;;;;;;1.83;1.63;;;18.70;99.90;;;;;;4993306;28;20038;-76
2022/06/07 17:12:08;;;;;;;1.40;1.30;;;18.70;99.90;;;;;;4986585;28;20037;-76
2022/06/07 17:14:35;;;;;;;1.48;1.20;;;18.70;99.90;;;;;;4992405;28;20044;-76
2022/06/07 17:17:01;;;;;;;1.85;1.17;;;18.70;99.90;;;;;;4969435;28;20048;-76
2022/06/07 17:19:27;;;;;;;1.30;1.20;;;18.80;99.90;;;;;;4976672;28;20017;-75
2022/06/07 17:22:01;;;;;;;1.30;1.20;;;18.80;99.90;;;;;;4990750;28;20084;-75
2022/06/07 17:24:29;;;;;;;1.25;1.15;;;18.70;99.90;;;;;;4970764;28;20079;-76
2022/06/07 17:26:56;;;;;;;2.65;1.50;;;18.70;99.90;;;;;;4980980;28;20033;-75
2022/06/07 17:29:25;;;;;;;2.20;1.10;;;18.70;99.90;;;;;;4974444;28;20483;-76
2022/06/07 17:31:58;;;;;;;2.72;1.00;;;18.80;99.90;;;;;;4983945;28;20038;-75
2022/06/07 17:34:28;;;;;;;1.20;1.10;;;18.80;99.90;;;;;;4988697;28;20023;-75
2022/06/07 17:36:58;;;;;;;2.63;1.25;;;18.80;99.90;;;;;;4983393;28;20377;-75
2022/06/07 17:39:32;;;;;;;1.42;1.13;;;18.80;99.90;;;;;;4984774;28;20021;-75
2022/06/07 17:42:02;;;;;;;3.35;1.05;;;18.70;99.90;;;;;;4966296;28;20606;-73
2022/06/07 17:44:29;;;;;;;1.55;1.40;;;18.70;99.90;;;;;;4969432;28;20034;-75
2022/06/07 17:46:58;;;;;;;1.17;1.10;;;18.60;99.90;;;;;;4963334;28;20120;-73
2022/06/07 17:49:26;;;;;;;1.50;1.40;;;18.60;99.90;;;;;;4988241;28;20022;-74
2022/06/07 17:51:52;;;;;;;3.15;1.55;;;18.70;99.90;;;;;;4984942;28;20046;-75
2022/06/07 17:54:19;;;;;;;1.45;1.33;;;18.70;99.90;;;;;;4976070;28;20053;-75
2022/06/07 17:56:47;;;;;;;1.25;1.23;;;18.70;99.90;;;;;;4987356;28;20034;-75